sensor_id;sensor_type;location;lat;lon;timestamp;P1;durP1;ratioP1;P2;durP2;ratioP2
41229;SDS011;26964;50.428;19.218;2023-05-14T00:00:42;10.7;;;6.3;;
41229;SDS011;26964;50.428;19.218;2023-05-14T00:01:42;10.9;;;7.0;;
41229;SDS011;26964;50.428;19.218;2023-05-14T00:02:42;11.8;;;6.4;;
41229;SDS011;26964;50.428;19.218;2023-05-14T00:03:42;13.3;;;7.6;;
41229;SDS011;26964;50.428;19.218;2023-05-14T00:04:45;11.3;;;7.0;;
41229;SDS011;26964;50.428;19.218;2023-05-14T00:05:42;11.3;;;7.3;;
41229;SDS011;26964;50.428;19.218;2023-05-14T00:06:42;12.6;;;7.9;;
41229;SDS011;26964;50.428;19.218;2023-05-14T00:07:42;10.6;;;6.8;;
41229;SDS011;26964;50.428;19.218;2023-05-14T00:08:42;13.4;;;7.5;;
41229;SDS011;26964;50.428;19.218;2023-05-14T00:09:42;12.3;;;7.6;;
41229;SDS011;26964;50.428;19.218;2023-05-14T00:10:42;11.2;;;7.2;;
41229;SDS011;26964;50.428;19.218;2023-05-14T00:11:42;11.3;;;7.0;;
41229;SDS011;26964;50.428;19.218;2023-05-14T00:12:42;11.4;;;7.3;;
41229;SDS011;26964;50.428;19.218;2023-05-14T00:13:42;9.9;;;6.7;;
41229;SDS011;26964;50.428;19.218;2023-05-14T00:14:42;11.5;;;7.5;;
41229;SDS011;26964;50.428;19.218;2023-05-14T00:15:42;12.7;;;7.7;;
41229;SDS011;26964;50.428;19.218;2023-05-14T00:16:42;11.6;;;7.6;;
41229;SDS011;26964;50.428;19.218;2023-05-14T00:17:42;12.2;;;7.4;;
41229;SDS011;26964;50.428;19.218;2023-05-14T00:18:42;11.8;;;7.3;;
41229;SDS011;26964;50.428;19.218;2023-05-14T00:19:42;11.6;;;7.4;;
41229;SDS011;26964;50.428;19.218;2023-05-14T00:20:42;12.2;;;7.0;;
41229;SDS011;26964;50.428;19.218;2023-05-14T00:21:42;10.3;;;7.2;;
41229;SDS011;26964;50.428;19.218;2023-05-14T00:22:42;10.4;;;7.3;;
41229;SDS011;26964;50.428;19.218;2023-05-14T00:23:42;14.4;;;7.5;;
41229;SDS011;26964;50.428;19.218;2023-05-14T00:24:42;15.7;;;7.5;;
41229;SDS011;26964;50.428;19.218;2023-05-14T00:25:42;13.3;;;7.8;;
41229;SDS011;26964;50.428;19.218;2023-05-14T00:26:42;10.6;;;7.4;;
41229;SDS011;26964;50.428;19.218;2023-05-14T00:27:42;11.8;;;7.8;;
41229;SDS011;26964;50.428;19.218;2023-05-14T00:28:42;11.4;;;7.5;;
41229;SDS011;26964;50.428;19.218;2023-05-14T00:29:42;13.0;;;7.2;;
41229;SDS011;26964;50.428;19.218;2023-05-14T00:30:42;11.6;;;7.6;;
41229;SDS011;26964;50.428;19.218;2023-05-14T00:31:42;11.6;;;7.0;;
41229;SDS011;26964;50.428;19.218;2023-05-14T00:32:42;11.1;;;7.5;;
41229;SDS011;26964;50.428;19.218;2023-05-14T00:33:42;11.1;;;7.2;;
41229;SDS011;26964;50.428;19.218;2023-05-14T00:34:42;11.3;;;7.2;;
41229;SDS011;26964;50.428;19.218;2023-05-14T00:35:42;14.5;;;7.6;;
41229;SDS011;26964;50.428;19.218;2023-05-14T00:36:42;12.5;;;7.9;;
41229;SDS011;26964;50.428;19.218;2023-05-14T00:37:42;10.5;;;7.1;;
41229;SDS011;26964;50.428;19.218;2023-05-14T00:38:42;11.9;;;8.2;;
41229;SDS011;26964;50.428;19.218;2023-05-14T00:39:42;11.5;;;7.4;;
41229;SDS011;26964;50.428;19.218;2023-05-14T00:40:42;9.7;;;7.0;;
41229;SDS011;26964;50.428;19.218;2023-05-14T00:41:42;10.6;;;7.8;;
41229;SDS011;26964;50.428;19.218;2023-05-14T00:42:42;13.4;;;7.9;;
41229;SDS011;26964;50.428;19.218;2023-05-14T00:43:42;11.0;;;7.7;;
41229;SDS011;26964;50.428;19.218;2023-05-14T00:44:42;9.8;;;7.2;;
41229;SDS011;26964;50.428;19.218;2023-05-14T00:45:42;12.3;;;7.6;;
41229;SDS011;26964;50.428;19.218;2023-05-14T00:46:42;10.4;;;7.0;;
41229;SDS011;26964;50.428;19.218;2023-05-14T00:47:42;12.2;;;7.8;;
41229;SDS011;26964;50.428;19.218;2023-05-14T00:48:42;12.1;;;7.3;;
41229;SDS011;26964;50.428;19.218;2023-05-14T00:49:42;12.3;;;7.5;;
41229;SDS011;26964;50.428;19.218;2023-05-14T00:50:42;10.0;;;7.2;;
41229;SDS011;26964;50.428;19.218;2023-05-14T00:51:42;11.0;;;6.6;;
41229;SDS011;26964;50.428;19.218;2023-05-14T00:52:42;11.6;;;7.3;;
41229;SDS011;26964;50.428;19.218;2023-05-14T00:53:42;12.3;;;6.9;;
41229;SDS011;26964;50.428;19.218;2023-05-14T00:54:42;11.9;;;6.7;;
41229;SDS011;26964;50.428;19.218;2023-05-14T00:55:42;11.1;;;7.0;;
41229;SDS011;26964;50.428;19.218;2023-05-14T00:56:42;10.1;;;7.1;;
41229;SDS011;26964;50.428;19.218;2023-05-14T00:57:42;10.6;;;6.1;;
41229;SDS011;26964;50.428;19.218;2023-05-14T00:58:42;10.7;;;7.5;;
41229;SDS011;26964;50.428;19.218;2023-05-14T00:59:42;12.3;;;7.1;;
41229;SDS011;26964;50.428;19.218;2023-05-14T01:00:42;11.5;;;7.4;;
41229;SDS011;26964;50.428;19.218;2023-05-14T01:01:42;11.0;;;6.8;;
41229;SDS011;26964;50.428;19.218;2023-05-14T01:02:42;12.2;;;7.4;;
41229;SDS011;26964;50.428;19.218;2023-05-14T01:03:42;9.1;;;6.5;;
41229;SDS011;26964;50.428;19.218;2023-05-14T01:04:42;10.3;;;7.0;;
41229;SDS011;26964;50.428;19.218;2023-05-14T01:05:55;10.1;;;7.0;;
41229;SDS011;26964;50.428;19.218;2023-05-14T01:06:44;11.2;;;6.7;;
41229;SDS011;26964;50.428;19.218;2023-05-14T01:07:45;9.6;;;6.4;;
41229;SDS011;26964;50.428;19.218;2023-05-14T01:08:45;14.1;;;7.4;;
41229;SDS011;26964;50.428;19.218;2023-05-14T01:09:45;10.3;;;7.1;;
41229;SDS011;26964;50.428;19.218;2023-05-14T01:10:45;11.5;;;7.0;;
41229;SDS011;26964;50.428;19.218;2023-05-14T01:11:43;12.0;;;7.3;;
41229;SDS011;26964;50.428;19.218;2023-05-14T01:12:43;10.0;;;7.5;;
41229;SDS011;26964;50.428;19.218;2023-05-14T01:13:45;8.6;;;6.3;;
41229;SDS011;26964;50.428;19.218;2023-05-14T01:14:43;10.4;;;7.0;;
41229;SDS011;26964;50.428;19.218;2023-05-14T01:15:42;11.3;;;7.0;;
41229;SDS011;26964;50.428;19.218;2023-05-14T01:16:42;10.9;;;7.1;;
41229;SDS011;26964;50.428;19.218;2023-05-14T01:17:44;11.4;;;7.0;;
41229;SDS011;26964;50.428;19.218;2023-05-14T01:18:42;11.3;;;7.2;;
41229;SDS011;26964;50.428;19.218;2023-05-14T01:19:43;13.9;;;7.5;;
41229;SDS011;26964;50.428;19.218;2023-05-14T01:20:43;12.8;;;7.6;;
41229;SDS011;26964;50.428;19.218;2023-05-14T01:21:42;9.5;;;6.6;;
41229;SDS011;26964;50.428;19.218;2023-05-14T01:22:42;10.3;;;7.0;;
41229;SDS011;26964;50.428;19.218;2023-05-14T01:23:42;10.4;;;7.1;;
41229;SDS011;26964;50.428;19.218;2023-05-14T01:24:42;10.5;;;7.1;;
41229;SDS011;26964;50.428;19.218;2023-05-14T01:25:42;10.1;;;6.9;;
41229;SDS011;26964;50.428;19.218;2023-05-14T01:26:42;11.7;;;7.5;;
41229;SDS011;26964;50.428;19.218;2023-05-14T01:27:43;10.3;;;7.5;;
41229;SDS011;26964;50.428;19.218;2023-05-14T01:28:42;9.6;;;6.7;;
41229;SDS011;26964;50.428;19.218;2023-05-14T01:29:47;11.4;;;7.2;;
41229;SDS011;26964;50.428;19.218;2023-05-14T01:31:42;10.5;;;7.1;;
41229;SDS011;26964;50.428;19.218;2023-05-14T01:32:42;11.8;;;7.0;;
41229;SDS011;26964;50.428;19.218;2023-05-14T01:33:42;12.0;;;7.3;;
41229;SDS011;26964;50.428;19.218;2023-05-14T01:34:42;11.0;;;7.0;;
41229;SDS011;26964;50.428;19.218;2023-05-14T01:35:42;9.3;;;7.0;;
41229;SDS011;26964;50.428;19.218;2023-05-14T01:36:42;11.5;;;7.4;;
41229;SDS011;26964;50.428;19.218;2023-05-14T01:37:46;9.6;;;6.5;;
41229;SDS011;26964;50.428;19.218;2023-05-14T01:38:42;10.5;;;6.7;;
41229;SDS011;26964;50.428;19.218;2023-05-14T01:39:42;9.4;;;6.9;;
41229;SDS011;26964;50.428;19.218;2023-05-14T01:40:42;11.7;;;6.7;;
41229;SDS011;26964;50.428;19.218;2023-05-14T01:41:42;10.4;;;7.4;;
41229;SDS011;26964;50.428;19.218;2023-05-14T01:42:42;10.8;;;6.9;;
41229;SDS011;26964;50.428;19.218;2023-05-14T01:43:42;11.1;;;6.7;;
41229;SDS011;26964;50.428;19.218;2023-05-14T01:44:42;11.5;;;7.4;;
41229;SDS011;26964;50.428;19.218;2023-05-14T01:45:42;10.0;;;7.3;;
41229;SDS011;26964;50.428;19.218;2023-05-14T01:46:42;10.6;;;7.5;;
41229;SDS011;26964;50.428;19.218;2023-05-14T01:47:42;11.7;;;7.4;;
41229;SDS011;26964;50.428;19.218;2023-05-14T01:48:42;11.2;;;7.0;;
41229;SDS011;26964;50.428;19.218;2023-05-14T01:49:42;13.3;;;8.2;;
41229;SDS011;26964;50.428;19.218;2023-05-14T01:50:42;9.1;;;6.8;;
41229;SDS011;26964;50.428;19.218;2023-05-14T01:51:53;11.4;;;6.7;;
41229;SDS011;26964;50.428;19.218;2023-05-14T01:52:42;10.9;;;6.7;;
41229;SDS011;26964;50.428;19.218;2023-05-14T01:53:42;10.3;;;6.9;;
41229;SDS011;26964;50.428;19.218;2023-05-14T01:54:42;12.7;;;7.3;;
41229;SDS011;26964;50.428;19.218;2023-05-14T01:55:42;10.0;;;6.3;;
41229;SDS011;26964;50.428;19.218;2023-05-14T01:56:42;10.1;;;6.9;;
41229;SDS011;26964;50.428;19.218;2023-05-14T01:57:42;10.6;;;7.2;;
41229;SDS011;26964;50.428;19.218;2023-05-14T01:58:42;10.3;;;6.5;;
41229;SDS011;26964;50.428;19.218;2023-05-14T02:00:42;10.1;;;6.6;;
41229;SDS011;26964;50.428;19.218;2023-05-14T02:01:42;10.4;;;6.9;;
41229;SDS011;26964;50.428;19.218;2023-05-14T02:02:42;12.8;;;7.0;;
41229;SDS011;26964;50.428;19.218;2023-05-14T02:03:42;8.7;;;6.3;;
41229;SDS011;26964;50.428;19.218;2023-05-14T02:04:42;9.4;;;6.5;;
41229;SDS011;26964;50.428;19.218;2023-05-14T02:05:42;9.7;;;6.7;;
41229;SDS011;26964;50.428;19.218;2023-05-14T02:06:42;11.9;;;7.0;;
41229;SDS011;26964;50.428;19.218;2023-05-14T02:07:42;10.5;;;6.8;;
41229;SDS011;26964;50.428;19.218;2023-05-14T02:08:42;9.7;;;6.5;;
41229;SDS011;26964;50.428;19.218;2023-05-14T02:09:42;9.1;;;6.3;;
41229;SDS011;26964;50.428;19.218;2023-05-14T02:10:42;10.4;;;6.2;;
41229;SDS011;26964;50.428;19.218;2023-05-14T02:11:42;9.3;;;6.9;;
41229;SDS011;26964;50.428;19.218;2023-05-14T02:12:42;9.6;;;6.4;;
41229;SDS011;26964;50.428;19.218;2023-05-14T02:13:42;9.0;;;6.4;;
41229;SDS011;26964;50.428;19.218;2023-05-14T02:14:42;10.0;;;6.5;;
41229;SDS011;26964;50.428;19.218;2023-05-14T02:15:42;8.5;;;6.9;;
41229;SDS011;26964;50.428;19.218;2023-05-14T02:16:42;9.3;;;7.0;;
41229;SDS011;26964;50.428;19.218;2023-05-14T02:17:42;8.5;;;6.4;;
41229;SDS011;26964;50.428;19.218;2023-05-14T02:18:42;8.2;;;6.0;;
41229;SDS011;26964;50.428;19.218;2023-05-14T02:19:42;11.9;;;6.9;;
41229;SDS011;26964;50.428;19.218;2023-05-14T02:20:42;8.2;;;6.1;;
41229;SDS011;26964;50.428;19.218;2023-05-14T02:21:42;8.7;;;6.4;;
41229;SDS011;26964;50.428;19.218;2023-05-14T02:22:42;8.5;;;6.0;;
41229;SDS011;26964;50.428;19.218;2023-05-14T02:23:42;9.4;;;6.9;;
41229;SDS011;26964;50.428;19.218;2023-05-14T02:24:57;8.8;;;6.3;;
41229;SDS011;26964;50.428;19.218;2023-05-14T02:25:42;10.4;;;6.6;;
41229;SDS011;26964;50.428;19.218;2023-05-14T02:26:42;9.0;;;6.7;;
41229;SDS011;26964;50.428;19.218;2023-05-14T02:27:42;8.8;;;6.5;;
41229;SDS011;26964;50.428;19.218;2023-05-14T02:28:42;10.2;;;6.6;;
41229;SDS011;26964;50.428;19.218;2023-05-14T02:29:43;9.4;;;6.1;;
41229;SDS011;26964;50.428;19.218;2023-05-14T02:30:42;8.8;;;6.2;;
41229;SDS011;26964;50.428;19.218;2023-05-14T02:31:42;7.9;;;5.6;;
41229;SDS011;26964;50.428;19.218;2023-05-14T02:32:42;9.6;;;6.1;;
41229;SDS011;26964;50.428;19.218;2023-05-14T02:33:42;7.5;;;5.7;;
41229;SDS011;26964;50.428;19.218;2023-05-14T02:34:42;9.4;;;6.1;;
41229;SDS011;26964;50.428;19.218;2023-05-14T02:35:42;7.6;;;5.9;;
41229;SDS011;26964;50.428;19.218;2023-05-14T02:36:42;10.0;;;6.9;;
41229;SDS011;26964;50.428;19.218;2023-05-14T02:37:42;8.9;;;5.8;;
41229;SDS011;26964;50.428;19.218;2023-05-14T02:38:42;10.9;;;6.2;;
41229;SDS011;26964;50.428;19.218;2023-05-14T02:39:42;8.7;;;6.5;;
41229;SDS011;26964;50.428;19.218;2023-05-14T02:40:43;8.8;;;6.6;;
41229;SDS011;26964;50.428;19.218;2023-05-14T02:41:42;9.3;;;5.8;;
41229;SDS011;26964;50.428;19.218;2023-05-14T02:42:42;9.3;;;6.0;;
41229;SDS011;26964;50.428;19.218;2023-05-14T02:43:42;9.2;;;6.3;;
41229;SDS011;26964;50.428;19.218;2023-05-14T02:44:42;8.6;;;5.9;;
41229;SDS011;26964;50.428;19.218;2023-05-14T02:45:42;10.8;;;6.6;;
41229;SDS011;26964;50.428;19.218;2023-05-14T02:46:42;10.9;;;6.6;;
41229;SDS011;26964;50.428;19.218;2023-05-14T02:47:42;12.2;;;6.5;;
41229;SDS011;26964;50.428;19.218;2023-05-14T02:48:42;7.3;;;5.9;;
41229;SDS011;26964;50.428;19.218;2023-05-14T02:49:42;8.9;;;6.2;;
41229;SDS011;26964;50.428;19.218;2023-05-14T02:50:42;11.4;;;6.5;;
41229;SDS011;26964;50.428;19.218;2023-05-14T02:51:42;9.0;;;6.3;;
41229;SDS011;26964;50.428;19.218;2023-05-14T02:52:42;8.3;;;5.8;;
41229;SDS011;26964;50.428;19.218;2023-05-14T02:53:42;9.1;;;6.7;;
41229;SDS011;26964;50.428;19.218;2023-05-14T02:54:42;7.3;;;5.3;;
41229;SDS011;26964;50.428;19.218;2023-05-14T02:55:42;10.5;;;6.8;;
41229;SDS011;26964;50.428;19.218;2023-05-14T02:56:42;8.9;;;6.4;;
41229;SDS011;26964;50.428;19.218;2023-05-14T02:57:42;9.3;;;6.7;;
41229;SDS011;26964;50.428;19.218;2023-05-14T02:58:42;9.1;;;6.0;;
41229;SDS011;26964;50.428;19.218;2023-05-14T02:59:42;7.9;;;6.3;;
41229;SDS011;26964;50.428;19.218;2023-05-14T03:00:42;8.8;;;6.3;;
41229;SDS011;26964;50.428;19.218;2023-05-14T03:01:42;10.7;;;6.4;;
41229;SDS011;26964;50.428;19.218;2023-05-14T03:02:42;8.3;;;6.4;;
41229;SDS011;26964;50.428;19.218;2023-05-14T03:03:42;7.6;;;5.8;;
41229;SDS011;26964;50.428;19.218;2023-05-14T03:04:42;7.4;;;5.6;;
41229;SDS011;26964;50.428;19.218;2023-05-14T03:05:42;8.8;;;6.0;;
41229;SDS011;26964;50.428;19.218;2023-05-14T03:06:42;9.9;;;6.1;;
41229;SDS011;26964;50.428;19.218;2023-05-14T03:07:42;13.5;;;6.4;;
41229;SDS011;26964;50.428;19.218;2023-05-14T03:08:42;10.0;;;6.5;;
41229;SDS011;26964;50.428;19.218;2023-05-14T03:09:42;8.2;;;6.3;;
41229;SDS011;26964;50.428;19.218;2023-05-14T03:10:42;9.1;;;6.4;;
41229;SDS011;26964;50.428;19.218;2023-05-14T03:11:42;10.8;;;5.9;;
41229;SDS011;26964;50.428;19.218;2023-05-14T03:12:42;9.8;;;6.2;;
41229;SDS011;26964;50.428;19.218;2023-05-14T03:13:42;9.6;;;6.5;;
41229;SDS011;26964;50.428;19.218;2023-05-14T03:14:42;11.9;;;6.6;;
41229;SDS011;26964;50.428;19.218;2023-05-14T03:15:42;10.1;;;6.7;;
41229;SDS011;26964;50.428;19.218;2023-05-14T03:16:42;10.3;;;6.2;;
41229;SDS011;26964;50.428;19.218;2023-05-14T03:17:42;8.7;;;6.4;;
41229;SDS011;26964;50.428;19.218;2023-05-14T03:18:42;8.7;;;6.6;;
41229;SDS011;26964;50.428;19.218;2023-05-14T03:19:42;7.7;;;5.6;;
41229;SDS011;26964;50.428;19.218;2023-05-14T03:20:42;9.9;;;6.8;;
41229;SDS011;26964;50.428;19.218;2023-05-14T03:21:42;9.5;;;6.2;;
41229;SDS011;26964;50.428;19.218;2023-05-14T03:22:42;8.7;;;6.1;;
41229;SDS011;26964;50.428;19.218;2023-05-14T03:23:42;9.1;;;7.1;;
41229;SDS011;26964;50.428;19.218;2023-05-14T03:24:42;8.3;;;6.2;;
41229;SDS011;26964;50.428;19.218;2023-05-14T03:25:42;9.3;;;6.2;;
41229;SDS011;26964;50.428;19.218;2023-05-14T03:26:42;10.3;;;6.6;;
41229;SDS011;26964;50.428;19.218;2023-05-14T03:27:42;9.7;;;6.5;;
41229;SDS011;26964;50.428;19.218;2023-05-14T03:28:42;10.1;;;6.9;;
41229;SDS011;26964;50.428;19.218;2023-05-14T03:29:42;8.0;;;6.2;;
41229;SDS011;26964;50.428;19.218;2023-05-14T03:30:42;8.4;;;6.2;;
41229;SDS011;26964;50.428;19.218;2023-05-14T03:31:42;9.8;;;6.6;;
41229;SDS011;26964;50.428;19.218;2023-05-14T03:32:42;8.8;;;6.6;;
41229;SDS011;26964;50.428;19.218;2023-05-14T03:33:42;7.9;;;6.3;;
41229;SDS011;26964;50.428;19.218;2023-05-14T03:34:42;8.7;;;6.5;;
41229;SDS011;26964;50.428;19.218;2023-05-14T03:35:42;9.3;;;6.7;;
41229;SDS011;26964;50.428;19.218;2023-05-14T03:36:42;9.6;;;6.8;;
41229;SDS011;26964;50.428;19.218;2023-05-14T03:37:42;10.4;;;6.7;;
41229;SDS011;26964;50.428;19.218;2023-05-14T03:38:42;8.2;;;6.3;;
41229;SDS011;26964;50.428;19.218;2023-05-14T03:39:42;8.6;;;6.5;;
41229;SDS011;26964;50.428;19.218;2023-05-14T03:40:42;11.0;;;8.0;;
41229;SDS011;26964;50.428;19.218;2023-05-14T03:41:42;10.3;;;6.7;;
41229;SDS011;26964;50.428;19.218;2023-05-14T03:42:42;9.7;;;5.9;;
41229;SDS011;26964;50.428;19.218;2023-05-14T03:43:42;8.2;;;6.2;;
41229;SDS011;26964;50.428;19.218;2023-05-14T03:44:42;7.5;;;5.8;;
41229;SDS011;26964;50.428;19.218;2023-05-14T03:45:42;7.6;;;5.8;;
41229;SDS011;26964;50.428;19.218;2023-05-14T03:46:42;9.1;;;5.9;;
41229;SDS011;26964;50.428;19.218;2023-05-14T03:47:42;9.9;;;6.7;;
41229;SDS011;26964;50.428;19.218;2023-05-14T03:48:42;8.4;;;6.7;;
41229;SDS011;26964;50.428;19.218;2023-05-14T03:49:42;10.8;;;6.7;;
41229;SDS011;26964;50.428;19.218;2023-05-14T03:50:42;9.2;;;7.1;;
41229;SDS011;26964;50.428;19.218;2023-05-14T03:51:42;10.0;;;6.8;;
41229;SDS011;26964;50.428;19.218;2023-05-14T03:52:42;9.3;;;7.0;;
41229;SDS011;26964;50.428;19.218;2023-05-14T03:53:42;9.9;;;7.3;;
41229;SDS011;26964;50.428;19.218;2023-05-14T03:54:42;11.8;;;7.6;;
41229;SDS011;26964;50.428;19.218;2023-05-14T03:55:41;11.0;;;7.3;;
41229;SDS011;26964;50.428;19.218;2023-05-14T03:56:42;10.4;;;7.5;;
41229;SDS011;26964;50.428;19.218;2023-05-14T03:57:41;10.0;;;6.8;;
41229;SDS011;26964;50.428;19.218;2023-05-14T03:58:41;10.6;;;7.4;;
41229;SDS011;26964;50.428;19.218;2023-05-14T03:59:42;9.8;;;7.3;;
41229;SDS011;26964;50.428;19.218;2023-05-14T04:00:42;11.3;;;7.2;;
41229;SDS011;26964;50.428;19.218;2023-05-14T04:01:42;9.7;;;7.0;;
41229;SDS011;26964;50.428;19.218;2023-05-14T04:02:42;8.1;;;6.2;;
41229;SDS011;26964;50.428;19.218;2023-05-14T04:03:41;12.1;;;7.6;;
41229;SDS011;26964;50.428;19.218;2023-05-14T04:04:41;10.4;;;6.6;;
41229;SDS011;26964;50.428;19.218;2023-05-14T04:05:42;9.5;;;6.8;;
41229;SDS011;26964;50.428;19.218;2023-05-14T04:06:42;9.6;;;6.8;;
41229;SDS011;26964;50.428;19.218;2023-05-14T04:07:42;11.7;;;7.2;;
41229;SDS011;26964;50.428;19.218;2023-05-14T04:08:41;9.9;;;7.6;;
41229;SDS011;26964;50.428;19.218;2023-05-14T04:09:41;9.3;;;7.0;;
41229;SDS011;26964;50.428;19.218;2023-05-14T04:10:42;9.9;;;7.5;;
41229;SDS011;26964;50.428;19.218;2023-05-14T04:11:42;11.4;;;7.3;;
41229;SDS011;26964;50.428;19.218;2023-05-14T04:12:41;10.1;;;7.1;;
41229;SDS011;26964;50.428;19.218;2023-05-14T04:13:42;9.4;;;6.7;;
41229;SDS011;26964;50.428;19.218;2023-05-14T04:14:42;11.2;;;7.7;;
41229;SDS011;26964;50.428;19.218;2023-05-14T04:15:41;8.9;;;7.0;;
41229;SDS011;26964;50.428;19.218;2023-05-14T04:16:42;11.0;;;7.2;;
41229;SDS011;26964;50.428;19.218;2023-05-14T04:17:42;10.9;;;6.9;;
41229;SDS011;26964;50.428;19.218;2023-05-14T04:18:42;13.5;;;7.5;;
41229;SDS011;26964;50.428;19.218;2023-05-14T04:19:42;11.4;;;7.1;;
41229;SDS011;26964;50.428;19.218;2023-05-14T04:20:41;10.3;;;6.9;;
41229;SDS011;26964;50.428;19.218;2023-05-14T04:21:41;10.8;;;7.4;;
41229;SDS011;26964;50.428;19.218;2023-05-14T04:22:42;11.9;;;7.2;;
41229;SDS011;26964;50.428;19.218;2023-05-14T04:23:42;10.2;;;7.2;;
41229;SDS011;26964;50.428;19.218;2023-05-14T04:24:41;8.1;;;6.6;;
41229;SDS011;26964;50.428;19.218;2023-05-14T04:25:41;10.1;;;6.8;;
41229;SDS011;26964;50.428;19.218;2023-05-14T04:26:42;8.4;;;6.5;;
41229;SDS011;26964;50.428;19.218;2023-05-14T04:27:41;8.7;;;6.5;;
41229;SDS011;26964;50.428;19.218;2023-05-14T04:28:42;10.5;;;6.4;;
41229;SDS011;26964;50.428;19.218;2023-05-14T04:29:42;8.8;;;6.8;;
41229;SDS011;26964;50.428;19.218;2023-05-14T04:30:41;9.7;;;6.6;;
41229;SDS011;26964;50.428;19.218;2023-05-14T04:31:42;9.1;;;6.7;;
41229;SDS011;26964;50.428;19.218;2023-05-14T04:32:42;9.9;;;6.6;;
41229;SDS011;26964;50.428;19.218;2023-05-14T04:33:41;8.7;;;6.4;;
41229;SDS011;26964;50.428;19.218;2023-05-14T04:34:42;12.1;;;7.2;;
41229;SDS011;26964;50.428;19.218;2023-05-14T04:35:42;9.1;;;6.8;;
41229;SDS011;26964;50.428;19.218;2023-05-14T04:36:42;8.7;;;6.3;;
41229;SDS011;26964;50.428;19.218;2023-05-14T04:37:42;9.9;;;6.3;;
41229;SDS011;26964;50.428;19.218;2023-05-14T04:38:41;8.8;;;6.1;;
41229;SDS011;26964;50.428;19.218;2023-05-14T04:39:42;8.7;;;6.5;;
41229;SDS011;26964;50.428;19.218;2023-05-14T04:40:41;10.6;;;6.6;;
41229;SDS011;26964;50.428;19.218;2023-05-14T04:41:41;8.1;;;5.0;;
41229;SDS011;26964;50.428;19.218;2023-05-14T04:42:41;7.0;;;5.0;;
41229;SDS011;26964;50.428;19.218;2023-05-14T04:43:41;7.9;;;4.8;;
41229;SDS011;26964;50.428;19.218;2023-05-14T04:46:42;7.6;;;5.4;;
41229;SDS011;26964;50.428;19.218;2023-05-14T04:47:41;6.9;;;4.9;;
41229;SDS011;26964;50.428;19.218;2023-05-14T04:48:41;7.0;;;4.6;;
41229;SDS011;26964;50.428;19.218;2023-05-14T04:49:41;9.1;;;4.9;;
41229;SDS011;26964;50.428;19.218;2023-05-14T04:50:42;6.6;;;4.6;;
41229;SDS011;26964;50.428;19.218;2023-05-14T04:51:41;6.6;;;4.6;;
41229;SDS011;26964;50.428;19.218;2023-05-14T04:52:41;7.3;;;4.9;;
41229;SDS011;26964;50.428;19.218;2023-05-14T04:53:41;6.6;;;4.9;;
41229;SDS011;26964;50.428;19.218;2023-05-14T04:54:41;6.4;;;4.5;;
41229;SDS011;26964;50.428;19.218;2023-05-14T04:55:41;7.4;;;4.7;;
41229;SDS011;26964;50.428;19.218;2023-05-14T04:56:41;6.4;;;4.4;;
41229;SDS011;26964;50.428;19.218;2023-05-14T04:57:41;6.5;;;4.5;;
41229;SDS011;26964;50.428;19.218;2023-05-14T04:58:41;6.9;;;4.9;;
41229;SDS011;26964;50.428;19.218;2023-05-14T04:59:41;8.6;;;4.9;;
41229;SDS011;26964;50.428;19.218;2023-05-14T05:00:41;8.7;;;4.9;;
41229;SDS011;26964;50.428;19.218;2023-05-14T05:01:42;8.3;;;4.8;;
41229;SDS011;26964;50.428;19.218;2023-05-14T05:02:41;7.5;;;5.0;;
41229;SDS011;26964;50.428;19.218;2023-05-14T05:03:41;8.3;;;5.0;;
41229;SDS011;26964;50.428;19.218;2023-05-14T05:04:41;9.7;;;5.1;;
41229;SDS011;26964;50.428;19.218;2023-05-14T05:05:41;9.1;;;4.8;;
41229;SDS011;26964;50.428;19.218;2023-05-14T05:06:41;8.1;;;5.0;;
41229;SDS011;26964;50.428;19.218;2023-05-14T05:07:41;6.8;;;4.3;;
41229;SDS011;26964;50.428;19.218;2023-05-14T05:08:41;5.8;;;4.0;;
41229;SDS011;26964;50.428;19.218;2023-05-14T05:09:42;4.9;;;3.2;;
41229;SDS011;26964;50.428;19.218;2023-05-14T05:10:41;6.2;;;3.6;;
41229;SDS011;26964;50.428;19.218;2023-05-14T05:11:41;5.3;;;3.6;;
41229;SDS011;26964;50.428;19.218;2023-05-14T05:12:42;4.0;;;2.8;;
41229;SDS011;26964;50.428;19.218;2023-05-14T05:13:41;5.2;;;3.2;;
41229;SDS011;26964;50.428;19.218;2023-05-14T05:14:41;5.7;;;3.6;;
41229;SDS011;26964;50.428;19.218;2023-05-14T05:15:41;4.7;;;3.2;;
41229;SDS011;26964;50.428;19.218;2023-05-14T05:16:41;5.0;;;3.2;;
41229;SDS011;26964;50.428;19.218;2023-05-14T05:17:41;4.8;;;3.2;;
41229;SDS011;26964;50.428;19.218;2023-05-14T05:18:41;4.8;;;3.4;;
41229;SDS011;26964;50.428;19.218;2023-05-14T05:19:41;5.3;;;3.6;;
41229;SDS011;26964;50.428;19.218;2023-05-14T05:20:41;6.9;;;3.5;;
41229;SDS011;26964;50.428;19.218;2023-05-14T05:21:41;5.3;;;3.2;;
41229;SDS011;26964;50.428;19.218;2023-05-14T05:22:41;4.3;;;3.0;;
41229;SDS011;26964;50.428;19.218;2023-05-14T05:23:41;4.6;;;3.0;;
41229;SDS011;26964;50.428;19.218;2023-05-14T05:24:41;5.2;;;2.8;;
41229;SDS011;26964;50.428;19.218;2023-05-14T05:25:41;4.8;;;3.0;;
41229;SDS011;26964;50.428;19.218;2023-05-14T05:26:41;3.9;;;2.8;;
41229;SDS011;26964;50.428;19.218;2023-05-14T05:27:41;6.1;;;2.9;;
41229;SDS011;26964;50.428;19.218;2023-05-14T05:28:41;5.2;;;2.8;;
41229;SDS011;26964;50.428;19.218;2023-05-14T05:29:42;4.8;;;2.8;;
41229;SDS011;26964;50.428;19.218;2023-05-14T05:30:41;4.2;;;3.2;;
41229;SDS011;26964;50.428;19.218;2023-05-14T05:31:41;5.0;;;3.1;;
41229;SDS011;26964;50.428;19.218;2023-05-14T05:32:41;4.4;;;2.7;;
41229;SDS011;26964;50.428;19.218;2023-05-14T05:33:41;4.6;;;3.1;;
41229;SDS011;26964;50.428;19.218;2023-05-14T05:34:42;4.3;;;2.8;;
41229;SDS011;26964;50.428;19.218;2023-05-14T05:35:41;4.4;;;2.4;;
41229;SDS011;26964;50.428;19.218;2023-05-14T05:36:41;6.8;;;2.6;;
41229;SDS011;26964;50.428;19.218;2023-05-14T05:37:41;4.6;;;2.8;;
41229;SDS011;26964;50.428;19.218;2023-05-14T05:38:41;7.2;;;2.9;;
41229;SDS011;26964;50.428;19.218;2023-05-14T05:39:41;4.2;;;3.0;;
41229;SDS011;26964;50.428;19.218;2023-05-14T05:40:41;3.5;;;2.3;;
41229;SDS011;26964;50.428;19.218;2023-05-14T05:41:41;5.2;;;2.9;;
41229;SDS011;26964;50.428;19.218;2023-05-14T05:42:41;5.1;;;3.0;;
41229;SDS011;26964;50.428;19.218;2023-05-14T05:43:41;5.0;;;2.6;;
41229;SDS011;26964;50.428;19.218;2023-05-14T05:44:41;4.7;;;2.7;;
41229;SDS011;26964;50.428;19.218;2023-05-14T05:45:42;4.7;;;2.6;;
41229;SDS011;26964;50.428;19.218;2023-05-14T05:46:41;6.2;;;2.4;;
41229;SDS011;26964;50.428;19.218;2023-05-14T05:47:41;4.7;;;2.8;;
41229;SDS011;26964;50.428;19.218;2023-05-14T05:48:41;5.3;;;3.0;;
41229;SDS011;26964;50.428;19.218;2023-05-14T05:49:41;5.0;;;2.5;;
41229;SDS011;26964;50.428;19.218;2023-05-14T05:50:41;4.9;;;2.3;;
41229;SDS011;26964;50.428;19.218;2023-05-14T05:51:41;3.5;;;2.4;;
41229;SDS011;26964;50.428;19.218;2023-05-14T05:52:41;5.1;;;2.6;;
41229;SDS011;26964;50.428;19.218;2023-05-14T05:53:41;4.9;;;2.5;;
41229;SDS011;26964;50.428;19.218;2023-05-14T05:54:41;5.2;;;2.7;;
41229;SDS011;26964;50.428;19.218;2023-05-14T05:55:41;4.5;;;2.3;;
41229;SDS011;26964;50.428;19.218;2023-05-14T05:56:42;3.7;;;2.3;;
41229;SDS011;26964;50.428;19.218;2023-05-14T05:57:41;4.4;;;2.1;;
41229;SDS011;26964;50.428;19.218;2023-05-14T05:58:41;3.3;;;1.9;;
41229;SDS011;26964;50.428;19.218;2023-05-14T05:59:41;4.3;;;2.2;;
41229;SDS011;26964;50.428;19.218;2023-05-14T06:00:41;4.0;;;2.4;;
41229;SDS011;26964;50.428;19.218;2023-05-14T06:01:41;4.9;;;2.4;;
41229;SDS011;26964;50.428;19.218;2023-05-14T06:02:41;3.0;;;2.0;;
41229;SDS011;26964;50.428;19.218;2023-05-14T06:03:41;4.0;;;2.1;;
41229;SDS011;26964;50.428;19.218;2023-05-14T06:04:41;3.3;;;2.3;;
41229;SDS011;26964;50.428;19.218;2023-05-14T06:05:41;5.0;;;2.1;;
41229;SDS011;26964;50.428;19.218;2023-05-14T06:06:41;4.0;;;2.3;;
41229;SDS011;26964;50.428;19.218;2023-05-14T06:07:41;3.4;;;2.4;;
41229;SDS011;26964;50.428;19.218;2023-05-14T06:08:41;4.6;;;2.4;;